Flight Track Log - Related Links

Times and Time Zones

All times are in EDT time to prevent confusion due to time zone crossing. See the ASQ5875 flight status page for this flight to view local times or setup timezone preferences in your user account.

Time Position Orientation Groundspeed Altitude Reporting Facility
EDT Latitude Longitude Course Direction KTS MPH feet Rate Location/Type
Fri 09:24:50 PM 43.6667 -79.5833 47° Northeast 290 334 1,000  Level Toronto Center
Fri 09:25:50 PM 43.7000 -79.5333 47° Northeast 190 219 3,000 1,900 Climbing Toronto Center
Fri 09:26:50 PM 43.7667 -79.5000 20° North 260 299 4,800 1,950 Climbing Toronto Center
Fri 09:27:50 PM 43.8333 -79.5167 350° North 280 322 6,900 1,100 Climbing Toronto Center
Fri 09:28:50 PM 43.8667 -79.6167 295° West 270 311 7,000 100 Climbing Toronto Center
Fri 09:29:50 PM 43.8500 -79.7333 259° West 270 311 7,100 50 Climbing Toronto Center
Fri 09:30:50 PM 43.8333 -79.8167 255° West 270 311 7,100 300 Level Toronto Center
Fri 09:31:50 PM 43.8167 -79.9333 259° West 280 322 7,700 1,500 Climbing Toronto Center
Fri 09:32:50 PM 43.8000 -80.0333 257° West 280 322 10,100 2,250 Climbing Toronto Center
Fri 09:33:50 PM 43.8000 -80.1333 270° West 300 345 12,200 2,150 Climbing Toronto Center
Fri 09:34:50 PM 43.7833 -80.2833 261° West 310 357 14,400 2,150 Climbing Toronto Center
Fri 09:35:50 PM 43.7667 -80.4000 259° West 310 357 16,500 1,950 Climbing Toronto Center
Fri 09:36:50 PM 43.7500 -80.5167 259° West 310 357 18,300 1,300 Climbing Toronto Center
Fri 09:37:50 PM 43.7167 -80.6167 245° Southwest 330 380 19,100 750 Climbing Toronto Center
Fri 09:38:50 PM 43.7000 -80.7667 261° West 370 426 19,800 800 Climbing Toronto Center
Fri 09:39:50 PM 43.6500 -80.9167 245° Southwest 390 449 20,700 1,000 Climbing Toronto Center
Fri 09:40:50 PM 43.6167 -81.0667 253° West 400 460 21,800 1,150 Climbing Toronto Center
Fri 09:41:50 PM 43.5833 -81.2167 253° West 410 472 23,000 1,000 Climbing Toronto Center
Fri 09:42:50 PM 43.5667 -81.3667 261° West 410 472 23,800 750 Climbing Toronto Center
Fri 09:43:50 PM 43.5667 -81.5167 270° West 420 483 24,500 650 Climbing Toronto Center
Fri 09:44:50 PM 43.5500 -81.6833 262° West 430 495 25,100 800 Climbing Toronto Center
Fri 09:45:50 PM 43.5333 -81.8333 261° West 430 495 26,100 1,000 Climbing Toronto Center
Fri 09:46:50 PM 43.5167 -82.0167 263° West 430 495 27,100 1,019 Climbing Toronto Center
Fri 09:47:36 PM 43.5208 -82.1492 273° West 425 489 27,900 1,019 Climbing Cleveland Center
Fri 09:48:36 PM 43.4978 -82.3003 258° West 425 489 28,900 1,000 Climbing Cleveland Center
Fri 09:49:36 PM 43.4497 -82.4447 245° Southwest 412 474 29,900 1,000 Climbing Cleveland Center
Fri 09:50:36 PM 43.3972 -82.5858 243° Southwest 417 480 30,900 1,000 Climbing Cleveland Center
Fri 09:51:36 PM 43.3467 -82.7300 244° Southwest 417 480 31,900 550 Climbing Cleveland Center
Fri 09:52:36 PM 43.2919 -82.8764 243° Southwest 422 486 32,000 50 Climbing Cleveland Center
Fri 09:53:36 PM 43.2322 -83.0367 243° Southwest 445 512 32,000  Level Cleveland Center
Fri 09:54:36 PM 43.1769 -83.1853 243° Southwest 455 524 32,000  Level Cleveland Center
Fri 09:55:36 PM 43.1214 -83.3394 244° Southwest 455 524 32,000  Level Cleveland Center
Fri 09:56:36 PM 43.0611 -83.4931 242° Southwest 455 524 32,000  Level Cleveland Center
Fri 09:57:36 PM 43.0053 -83.6439 243° Southwest 455 524 32,000  Level Cleveland Center
Fri 09:58:36 PM 42.9592 -83.8033 248° West 460 529 32,000  Level Cleveland Center
Fri 09:59:36 PM 42.9439 -83.9697 263° West 446 513 32,000  Level Cleveland Center
Fri 10:00:36 PM 42.9264 -84.1392 262° West 452 520 32,000  Level Cleveland Center
Fri 10:02:35 PM 42.8978 -84.4481 263° West 447 514 32,000  Level Chicago Center
Fri 10:03:37 PM 42.8808 -84.6139 262° West 445 512 32,000  Level Chicago Center
Fri 10:04:39 PM 42.8606 -84.8128 262° West 441 507 32,000  Level Chicago Center
Fri 10:05:40 PM 42.8433 -84.9767 262° West 438 504 32,000  Level Chicago Center
Fri 10:06:42 PM 42.8253 -85.1436 262° West 444 511 32,000  Level Chicago Center
Fri 10:07:43 PM 42.8069 -85.3117 262° West 447 514 32,000 -488 Level Chicago Center
Fri 10:08:45 PM 42.7881 -85.4811 261° West 451 519 31,000 -1,415 Descending Chicago Center
Fri 10:09:46 PM 42.7603 -85.6433 257° West 440 506 29,100 -2,146 Descending Chicago Center
Fri 10:10:48 PM 42.7308 -85.8094 256° West 446 513 26,600 -2,537 Descending Chicago Center
Fri 10:11:49 PM 42.6997 -85.9831 256° West 463 533 23,900 -2,557 Descending Chicago Center
Fri 10:12:50 PM 42.6681 -86.1492 256° West 458 527 21,400 -1,854 Descending Chicago Center
Fri 10:13:52 PM 42.6400 -86.3047 256° West 434 499 20,100 -1,707 Descending Chicago Center
Fri 10:14:53 PM 42.6056 -86.4844 255° West 412 474 17,900 -2,341 Descending Chicago Center
Fri 10:15:55 PM 42.5772 -86.6336 256° West 410 472 15,300 -2,244 Descending Chicago Center
Fri 10:16:56 PM 42.5486 -86.7753 255° West 394 453 13,300 -1,756 Descending Chicago Center
Fri 10:17:58 PM 42.5114 -86.9094 249° West 383 441 11,700 -1,512 Descending Chicago Center
Fri 10:18:59 PM 42.4756 -87.0403 250° West 373 429 10,200 -829 Descending Chicago Center
Fri 10:20:01 PM 42.4411 -87.1628 249° West 352 405 10,000 -146 Descending Chicago Center
Fri 10:21:02 PM 42.4061 -87.2886 249° West 357 411 9,900  Descending Chicago Center
Fri 10:22:03 PM 42.3675 -87.4286 250° West 354 407 10,000 49 Climbing Chicago Center
Fri 10:23:05 PM 42.3242 -87.5494 244° Southwest 363 418 10,000  Level Chicago Center
Fri 10:24:06 PM 42.2472 -87.6317 218° Southwest 355 409 10,000 -49 Level Chicago Center
Fri 10:25:08 PM 42.1800 -87.7022 218° Southwest 304 350 9,900 -870 Descending Chicago Center
Fri 10:26:17 PM 42.1167 -87.7833 224° Southwest 248 285 8,100 -1,415 Descending Chicago TRACON
Fri 10:27:11 PM 42.1000 -87.8500 251° West 231 266 7,000 -550 Descending Chicago TRACON
Fri 10:28:17 PM 42.1000 -87.9333 270° West 231 266 7,000  Level Chicago TRACON
Fri 10:29:17 PM 42.1000 -88.0167 270° West 219 252 7,000 -526 Level Chicago TRACON
Fri 10:30:11 PM 42.1000 -88.1000 270° West 220 253 6,000 -1,008 Descending Chicago TRACON
Fri 10:31:16 PM 42.0906 -88.1775 261° West 222 255 5,000 -472 Descending Chicago Center
Fri 10:32:18 PM 42.0833 -88.2581 263° West 219 252 5,000  Level Chicago Center
Fri 10:33:19 PM 42.0633 -88.3236 248° West 207 238 5,000  Level Chicago Center
Fri 10:34:20 PM 42.0050 -88.3300 185° South 177 204 5,000 -49 Level Chicago Center
Fri 10:35:22 PM 41.9772 -88.3011 142° Southeast 185 213 4,900  Descending Chicago Center
Fri 10:36:23 PM 41.9753 -88.2481 93° East 160 184 5,000 -148 Climbing Chicago Center
Fri 10:37:24 PM 41.9714 -88.1828 95° East 177 204 4,600 -626 Descending Chicago Center
Fri 10:38:18 PM 41.9667 -88.1167 95° East 166 191 3,800 -1,000 Descending Chicago TRACON
Fri 10:39:18 PM 41.9667 -88.0667 90° East 164 189 2,700 -950 Descending Chicago TRACON
Fri 10:40:18 PM 41.9667 -88.0167 90° East 121 139 1,900 -700 Descending Chicago TRACON
Fri 10:41:18 PM 41.9667 -87.9667 90° East 117 135 1,300 -600 Descending Chicago TRACON
Fri 10:43:00 PM 41.9667 -87.9000 90° East  Level FlightAware Approximate
Fri 10:50:00 PM 41.9817 -87.9067 90° East  Level Estimated

Login

Don't have an account? Register now (free) for customized features, flight alerts, and more!